createdAt,value
2019-04-22T00:01:38.611Z,8.00
2019-04-22T00:04:13.495Z,9.83
2019-04-22T00:06:56.098Z,8.70
2019-04-22T00:09:40.266Z,9.20
2019-04-22T00:12:06.113Z,9.53
2019-04-22T00:14:28.338Z,9.97
2019-04-22T00:17:20.319Z,9.47
2019-04-22T00:19:45.342Z,9.63
2019-04-22T00:22:20.541Z,9.77
2019-04-22T00:24:38.782Z,10.57
2019-04-22T00:27:13.829Z,10.47
2019-04-22T00:32:28.315Z,9.87
2019-04-22T00:34:57.676Z,9.67
2019-04-22T00:37:28.806Z,9.70
2019-04-22T00:40:14.869Z,9.70
2019-04-22T00:42:28.808Z,9.63
2019-04-22T00:45:03.255Z,10.00
2019-04-22T00:50:14.606Z,11.00
2019-04-22T00:55:06.168Z,10.60
2019-04-22T01:00:06.645Z,9.53
2019-04-22T01:02:39.663Z,10.57
2019-04-22T01:05:00.788Z,10.70
2019-04-22T01:07:30.458Z,11.03
2019-04-22T01:12:32.946Z,10.63
2019-04-22T01:15:01.072Z,11.27
2019-04-22T01:17:34.389Z,10.80
2019-04-22T01:20:10.400Z,10.33
2019-04-22T01:22:26.698Z,10.50
2019-04-22T01:24:57.617Z,11.13
2019-04-22T01:27:24.412Z,11.57
2019-04-22T01:29:48.950Z,11.23
2019-04-22T01:32:15.335Z,10.70
2019-04-22T01:34:49.939Z,11.90
2019-04-22T01:37:27.112Z,10.27
2019-04-22T01:40:04.545Z,10.40
2019-04-22T01:42:35.704Z,11.00
2019-04-22T01:45:02.797Z,10.47
2019-04-22T01:47:36.509Z,10.80
2019-04-22T01:50:06.297Z,11.13
2019-04-22T01:52:32.675Z,11.37
2019-04-22T01:55:04.502Z,10.80
2019-04-22T01:57:28.792Z,11.60
2019-04-22T01:59:51.479Z,11.07
2019-04-22T02:02:30.527Z,11.03
2019-04-22T02:05:01.234Z,11.13
2019-04-22T02:07:29.409Z,10.27
2019-04-22T02:09:56.030Z,11.40
2019-04-22T02:12:27.697Z,10.60
2019-04-22T02:14:57.630Z,11.50
2019-04-22T02:17:32.839Z,11.77
2019-04-22T02:19:59.097Z,11.40
2019-04-22T02:22:42.860Z,9.87
2019-04-22T02:25:17.138Z,10.70
2019-04-22T02:27:37.633Z,10.87
2019-04-22T02:29:52.275Z,11.80
2019-04-22T02:35:07.654Z,11.83
2019-04-22T02:37:27.767Z,13.20
2019-04-22T02:40:05.710Z,11.50
2019-04-22T02:42:24.188Z,11.70
2019-04-22T02:44:53.292Z,12.30
2019-04-22T02:50:01.744Z,12.00
2019-04-22T02:52:31.189Z,12.37
2019-04-22T02:55:03.067Z,11.77
2019-04-22T03:00:05.587Z,12.30
2019-04-22T03:02:35.721Z,12.87
2019-04-22T03:05:24.107Z,12.83
2019-04-22T03:09:57.852Z,11.60
2019-04-22T03:12:29.218Z,12.43
2019-04-22T03:14:59.933Z,13.00
2019-04-22T03:17:49.528Z,13.30
2019-04-22T03:22:27.940Z,12.00
2019-04-22T03:27:30.131Z,11.87
2019-04-22T03:42:52.091Z,13.53
2019-04-22T03:47:52.155Z,12.97
2019-04-22T03:52:44.465Z,12.70
2019-04-22T03:55:09.248Z,13.23
2019-04-22T04:05:09.924Z,14.00
2019-04-22T04:10:20.052Z,13.60
2019-04-22T04:12:58.198Z,13.10
2019-04-22T04:17:44.207Z,14.13
2019-04-22T04:22:56.744Z,14.47
2019-04-22T04:25:35.502Z,15.83
2019-04-22T04:30:18.847Z,14.47
2019-04-22T04:35:28.253Z,15.03
2019-04-22T04:47:47.719Z,15.77
2019-04-22T04:50:35.352Z,14.47
2019-04-22T04:55:26.660Z,15.53
2019-04-22T05:00:39.260Z,15.40
2019-04-22T05:02:52.470Z,14.33
2019-04-22T05:05:21.113Z,16.40
2019-04-22T05:07:55.366Z,16.20
2019-04-22T05:15:27.323Z,16.27
2019-04-22T05:22:51.574Z,15.87
2019-04-22T05:25:19.573Z,15.60
2019-04-22T05:27:47.682Z,15.00
2019-04-22T05:30:34.624Z,17.10
2019-04-22T05:32:58.716Z,15.53
2019-04-22T05:35:26.246Z,15.37
2019-04-22T05:37:58.006Z,15.97
2019-04-22T05:40:23.628Z,16.40
2019-04-22T05:42:55.956Z,15.87
2019-04-22T05:45:28.239Z,15.43
2019-04-22T05:47:57.612Z,16.33
2019-04-22T05:50:23.967Z,14.90
2019-04-22T05:52:56.680Z,15.00
2019-04-22T05:55:33.249Z,15.70
2019-04-22T05:57:59.680Z,14.80
2019-04-22T06:02:56.837Z,15.57
2019-04-22T06:05:33.184Z,15.77
2019-04-22T06:08:00.093Z,15.90
2019-04-22T06:10:42.313Z,15.77
2019-04-22T06:13:00.759Z,16.00
2019-04-22T06:15:32.821Z,15.23
2019-04-22T06:18:11.913Z,16.23
2019-04-22T06:20:37.379Z,15.53
2019-04-22T06:26:04.866Z,17.40
2019-04-22T06:28:17.197Z,16.30
2019-04-22T06:30:36.029Z,15.50
2019-04-22T06:33:15.295Z,16.47
2019-04-22T06:38:30.433Z,15.08
2019-04-22T06:40:46.994Z,14.58
2019-04-22T06:43:26.354Z,14.75
2019-04-22T06:45:51.736Z,15.15
2019-04-22T06:48:28.447Z,14.93
2019-04-22T06:50:52.817Z,14.70
2019-04-22T06:53:23.959Z,15.10
2019-04-22T06:55:55.795Z,14.50
2019-04-22T06:58:41.124Z,14.93
2019-04-22T07:01:19.370Z,14.47
2019-04-22T07:06:00.228Z,14.00
2019-04-22T07:08:59.626Z,13.37
2019-04-22T07:10:50.882Z,14.00
2019-04-22T07:13:27.428Z,13.27
2019-04-22T07:16:13.228Z,13.37
2019-04-22T07:18:33.821Z,13.07
2019-04-22T07:20:57.840Z,13.57
2019-04-22T07:23:30.280Z,13.63
2019-04-22T07:25:58.454Z,14.37
2019-04-22T07:28:24.462Z,12.87
2019-04-22T07:30:59.109Z,11.37
2019-04-22T07:33:39.300Z,11.73
2019-04-22T07:36:25.722Z,12.20
2019-04-22T07:38:26.319Z,12.83
2019-04-22T07:40:56.218Z,12.63
2019-04-22T07:43:52.844Z,12.40
2019-04-22T07:46:18.714Z,12.37
2019-04-22T07:48:43.423Z,12.17
2019-04-22T07:53:35.362Z,12.23
2019-04-22T07:56:06.734Z,11.10
2019-04-22T07:58:36.001Z,11.27
2019-04-22T08:01:08.796Z,10.60
2019-04-22T08:03:45.433Z,10.60
2019-04-22T08:06:11.717Z,10.77
2019-04-22T08:08:38.900Z,11.53
2019-04-22T08:13:38.284Z,9.67
2019-04-22T08:16:10.527Z,9.97
2019-04-22T08:18:54.097Z,9.50
2019-04-22T08:21:19.716Z,10.57
2019-04-22T08:26:05.404Z,10.40
2019-04-22T08:28:45.810Z,9.03
2019-04-22T08:33:44.425Z,9.83
2019-04-22T08:38:43.663Z,8.93
2019-04-22T08:41:22.991Z,8.93
2019-04-22T08:43:55.884Z,9.00
2019-04-22T08:46:23.379Z,8.60
2019-04-22T08:48:49.624Z,8.57
2019-04-22T08:51:23.429Z,8.30
2019-04-22T08:53:58.892Z,6.93
2019-04-22T09:01:22.448Z,8.90
2019-04-22T09:03:52.453Z,8.17
2019-04-22T09:06:29.976Z,7.60
2019-04-22T09:08:55.130Z,7.47
2019-04-22T09:11:31.331Z,6.78
2019-04-22T09:16:28.232Z,6.60
2019-04-22T09:18:53.867Z,5.72
2019-04-22T09:21:26.391Z,6.37
2019-04-22T09:23:57.160Z,5.72
2019-04-22T09:26:22.891Z,6.00
2019-04-22T09:28:53.864Z,5.60
2019-04-22T09:31:19.602Z,6.30
2019-04-22T09:33:50.398Z,5.37
2019-04-22T09:39:09.463Z,5.40
2019-04-22T09:41:27.674Z,5.25
2019-04-22T09:43:53.624Z,4.90
2019-04-22T09:46:22.726Z,4.70
2019-04-22T09:48:55.365Z,4.47
2019-04-22T09:51:19.029Z,4.15
2019-04-22T09:56:28.020Z,4.33
2019-04-22T09:58:52.322Z,4.17
2019-04-22T10:09:01.805Z,4.10
2019-04-22T10:11:26.846Z,3.27
2019-04-22T10:13:53.713Z,3.17
2019-04-22T10:16:27.681Z,3.52
2019-04-22T10:18:52.894Z,3.62
2019-04-22T10:21:24.090Z,3.42
2019-04-22T10:23:50.433Z,3.77
2019-04-22T10:26:22.299Z,3.25
2019-04-22T10:28:57.155Z,3.00
2019-04-22T10:31:26.193Z,3.95
2019-04-22T10:33:46.520Z,3.50
2019-04-22T10:35:57.365Z,3.92
2019-04-22T10:38:28.254Z,3.65
2019-04-22T10:40:56.540Z,3.70
2019-04-22T10:43:25.309Z,3.95
2019-04-22T10:45:54.622Z,3.45
2019-04-22T10:48:22.103Z,3.40
2019-04-22T10:50:50.699Z,3.52
2019-04-22T10:53:19.727Z,3.60
2019-04-22T10:55:49.451Z,3.15
2019-04-22T10:58:17.890Z,3.00
2019-04-22T11:00:52.338Z,3.00
2019-04-22T11:03:22.316Z,3.80
2019-04-22T11:05:50.586Z,3.70
2019-04-22T11:08:31.557Z,3.67
2019-04-22T11:11:07.111Z,3.52
2019-04-22T11:13:22.100Z,3.30
2019-04-22T11:15:53.071Z,3.60
2019-04-22T11:18:20.758Z,2.98
2019-04-22T11:20:49.376Z,3.40
2019-04-22T11:23:18.441Z,3.67
2019-04-22T11:25:47.834Z,3.87
2019-04-22T11:28:16.058Z,3.62
2019-04-22T11:30:44.717Z,3.02
2019-04-22T11:33:12.215Z,3.10
2019-04-22T11:35:50.045Z,3.62
2019-04-22T11:38:18.796Z,2.83
2019-04-22T11:40:51.670Z,3.58
2019-04-22T11:43:19.927Z,3.92
2019-04-22T11:45:49.122Z,3.75
2019-04-22T11:48:19.524Z,3.83
2019-04-22T11:50:48.119Z,4.47
2019-04-22T11:53:16.691Z,3.72
2019-04-22T11:55:46.687Z,3.35
2019-04-22T11:58:14.945Z,3.60
2019-04-22T12:00:53.459Z,3.87
2019-04-22T12:03:22.926Z,3.70
2019-04-22T12:05:58.162Z,3.60
2019-04-22T12:08:41.467Z,3.47
2019-04-22T12:11:22.746Z,3.35
2019-04-22T12:14:00.013Z,3.40
2019-04-22T12:16:23.309Z,3.25
2019-04-22T12:18:51.221Z,4.00
2019-04-22T12:21:19.531Z,4.33
2019-04-22T12:23:47.259Z,3.77
2019-04-22T12:26:22.662Z,4.55
2019-04-22T12:28:49.107Z,4.80
2019-04-22T12:31:17.657Z,4.40
2019-04-22T12:33:45.834Z,4.20
2019-04-22T12:36:14.741Z,4.20
2019-04-22T12:38:45.184Z,4.85
2019-04-22T12:41:23.607Z,4.40
2019-04-22T12:43:51.531Z,3.55
2019-04-22T12:46:20.497Z,4.22
2019-04-22T12:48:52.087Z,3.75
2019-04-22T12:51:20.941Z,3.80
2019-04-22T12:53:48.960Z,4.17
2019-04-22T12:56:17.433Z,4.28
2019-04-22T12:58:47.721Z,4.37
2019-04-22T13:01:19.089Z,4.05
2019-04-22T13:03:52.024Z,3.55
2019-04-22T13:06:23.654Z,3.47
2019-04-22T13:08:52.336Z,5.03
2019-04-22T13:11:25.085Z,3.80
2019-04-22T13:13:49.489Z,3.30
2019-04-22T13:16:20.676Z,4.03
2019-04-22T13:18:55.428Z,3.75
2019-04-22T13:21:18.667Z,3.77
2019-04-22T13:23:52.994Z,3.90
2019-04-22T13:26:27.148Z,3.47
2019-04-22T13:28:58.954Z,3.60
2019-04-22T13:31:33.273Z,3.77
2019-04-22T13:34:03.563Z,4.30
2019-04-22T13:36:36.643Z,3.90
2019-04-22T13:39:09.404Z,3.83
2019-04-22T13:41:44.015Z,4.12
2019-04-22T13:44:09.188Z,4.17
2019-04-22T13:46:59.186Z,3.62
2019-04-22T13:49:51.542Z,4.37
2019-04-22T13:52:29.305Z,4.10
2019-04-22T13:57:07.957Z,3.92
2019-04-22T13:59:27.125Z,4.22
2019-04-22T14:02:22.356Z,4.40
2019-04-22T14:04:52.665Z,4.22
2019-04-22T14:07:20.966Z,4.28
2019-04-22T14:09:48.714Z,3.85
2019-04-22T14:12:18.367Z,3.90
2019-04-22T14:14:47.397Z,4.35
2019-04-22T14:17:16.680Z,3.85
2019-04-22T14:19:44.769Z,4.15
2019-04-22T14:22:13.774Z,3.70
2019-04-22T14:24:42.672Z,4.00
2019-04-22T14:27:21.357Z,3.67
2019-04-22T14:29:43.770Z,3.98
2019-04-22T14:32:25.351Z,3.85
2019-04-22T14:34:53.224Z,3.58
2019-04-22T14:37:21.937Z,4.03
2019-04-22T14:39:49.957Z,3.85
2019-04-22T14:42:34.421Z,3.55
2019-04-22T14:47:53.901Z,3.65
2019-04-22T14:50:17.654Z,3.60
2019-04-22T14:52:50.794Z,3.75
2019-04-22T14:55:06.092Z,3.35
2019-04-22T14:57:27.751Z,3.40
2019-04-22T14:59:55.805Z,3.40
2019-04-22T15:02:25.540Z,3.77
2019-04-22T15:04:54.228Z,3.55
2019-04-22T15:07:30.711Z,3.50
2019-04-22T15:10:04.203Z,3.37
2019-04-22T15:12:39.169Z,3.95
2019-04-22T15:15:09.156Z,3.17
2019-04-22T15:17:45.111Z,3.70
2019-04-22T15:20:29.935Z,3.77
2019-04-22T15:22:58.874Z,3.42
2019-04-22T15:25:26.446Z,3.65
2019-04-22T15:27:55.228Z,3.87
2019-04-22T15:30:25.556Z,3.60
2019-04-22T15:32:53.667Z,3.27
2019-04-22T15:35:23.003Z,3.22
2019-04-22T15:37:55.230Z,3.47
2019-04-22T15:40:24.865Z,3.05
2019-04-22T15:42:55.063Z,4.05
2019-04-22T15:45:25.940Z,3.47
2019-04-22T15:47:59.919Z,3.75
2019-04-22T15:50:28.569Z,3.22
2019-04-22T15:52:58.866Z,3.02
2019-04-22T15:55:26.795Z,3.22
2019-04-22T15:57:55.168Z,3.62
2019-04-22T16:00:35.255Z,3.27
2019-04-22T16:02:51.997Z,3.15
2019-04-22T16:05:20.386Z,3.65
2019-04-22T16:07:53.045Z,3.10
2019-04-22T16:10:22.071Z,3.27
2019-04-22T16:13:03.511Z,3.10
2019-04-22T16:15:28.803Z,3.52
2019-04-22T16:18:00.874Z,2.95
2019-04-22T16:20:28.036Z,3.00
2019-04-22T16:23:27.378Z,2.77
2019-04-22T16:26:07.553Z,2.80
2019-04-22T16:28:35.461Z,2.83
2019-04-22T16:31:07.216Z,2.72
2019-04-22T16:33:39.981Z,2.70
2019-04-22T16:36:16.723Z,2.80
2019-04-22T16:38:49.180Z,2.95
2019-04-22T16:41:21.459Z,2.75
2019-04-22T16:43:54.273Z,3.17
2019-04-22T16:46:21.894Z,2.80
2019-04-22T16:48:53.855Z,3.02
2019-04-22T16:51:22.266Z,2.75
2019-04-22T16:53:53.922Z,3.30
2019-04-22T16:56:24.763Z,3.05
2019-04-22T16:58:54.838Z,3.50
2019-04-22T17:01:43.110Z,2.70
2019-04-22T17:04:22.905Z,2.58
2019-04-22T17:06:53.377Z,2.50
2019-04-22T17:09:25.872Z,2.52
2019-04-22T17:11:54.020Z,2.98
2019-04-22T17:14:27.237Z,3.17
2019-04-22T17:16:54.753Z,3.40
2019-04-22T17:19:23.695Z,3.15
2019-04-22T17:21:53.606Z,2.30
2019-04-22T17:24:28.030Z,3.30
2019-04-22T17:26:56.589Z,2.37
2019-04-22T17:29:28.265Z,2.83
2019-04-22T17:32:01.692Z,3.27
2019-04-22T17:34:25.514Z,2.83
2019-04-22T17:36:57.287Z,2.80
2019-04-22T17:39:35.983Z,2.87
2019-04-22T17:42:15.727Z,2.62
2019-04-22T17:44:48.071Z,3.08
2019-04-22T17:47:44.533Z,2.60
2019-04-22T17:50:31.430Z,2.58
2019-04-22T17:53:07.239Z,2.45
2019-04-22T17:55:24.236Z,2.60
2019-04-22T17:57:52.685Z,2.67
2019-04-22T18:00:29.552Z,2.95
2019-04-22T18:02:51.476Z,2.80
2019-04-22T18:05:09.920Z,2.42
2019-04-22T18:07:56.012Z,3.12
2019-04-22T18:10:32.562Z,2.75
2019-04-22T18:13:01.797Z,2.77
2019-04-22T18:15:27.021Z,2.77
2019-04-22T18:18:00.879Z,2.58
2019-04-22T18:20:27.566Z,2.40
2019-04-22T18:22:52.192Z,2.60
2019-04-22T18:25:29.581Z,2.75
2019-04-22T18:28:13.778Z,2.72
2019-04-22T18:30:33.495Z,2.87
2019-04-22T18:33:07.581Z,2.98
2019-04-22T18:35:35.209Z,2.85
2019-04-22T18:38:07.713Z,3.05
2019-04-22T18:40:36.196Z,3.12
2019-04-22T18:43:24.986Z,3.00
2019-04-22T18:45:47.065Z,3.50
2019-04-22T18:47:59.884Z,3.40
2019-04-22T18:50:50.377Z,3.40
2019-04-22T18:53:44.871Z,3.08
2019-04-22T18:56:14.014Z,3.60
2019-04-22T18:58:35.809Z,3.33
2019-04-22T19:00:51.311Z,3.47
2019-04-22T19:03:25.778Z,2.72
2019-04-22T19:06:24.787Z,3.10
2019-04-22T19:08:44.714Z,2.85
2019-04-22T19:11:17.638Z,2.92
2019-04-22T19:16:27.106Z,2.77
2019-04-22T19:18:50.215Z,2.90
2019-04-22T19:21:14.902Z,2.52
2019-04-22T19:23:52.133Z,2.98
2019-04-22T19:26:26.294Z,2.70
2019-04-22T19:28:46.481Z,2.50
2019-04-22T19:31:22.016Z,2.85
2019-04-22T19:33:50.089Z,2.80
2019-04-22T19:36:33.141Z,2.62
2019-04-22T19:38:38.285Z,3.10
2019-04-22T19:41:24.301Z,3.08
2019-04-22T19:46:18.336Z,2.87
2019-04-22T19:49:00.314Z,3.13
2019-04-22T19:51:27.995Z,2.93
2019-04-22T19:53:56.130Z,3.20
2019-04-22T19:56:17.585Z,3.20
2019-04-22T19:58:47.667Z,3.10
2019-04-22T20:01:45.526Z,2.87
2019-04-22T20:04:21.918Z,3.13
2019-04-22T20:06:56.553Z,2.83
2019-04-22T20:09:29.885Z,3.30
2019-04-22T20:11:59.697Z,3.33
2019-04-22T20:14:33.338Z,3.40
2019-04-22T20:16:54.410Z,3.53
2019-04-22T20:19:38.568Z,3.47
2019-04-22T20:22:00.017Z,3.13
2019-04-22T20:24:16.318Z,3.30
2019-04-22T20:27:09.106Z,3.67
2019-04-22T20:29:55.112Z,3.43
2019-04-22T20:32:10.812Z,3.40
2019-04-22T20:34:44.823Z,3.17
2019-04-22T20:37:15.149Z,3.23
2019-04-22T20:39:46.809Z,3.50
2019-04-22T20:42:38.699Z,3.90
2019-04-22T20:44:51.677Z,3.53
2019-04-22T20:47:17.725Z,3.20
2019-04-22T20:49:55.063Z,3.60
2019-04-22T20:52:26.634Z,4.03
2019-04-22T20:54:49.463Z,3.17
2019-04-22T20:57:17.231Z,3.40
2019-04-22T20:59:48.144Z,3.87
2019-04-22T21:02:14.993Z,3.30
2019-04-22T21:04:41.965Z,3.30
2019-04-22T21:07:19.651Z,3.50
2019-04-22T21:10:07.625Z,3.00
2019-04-22T21:12:31.306Z,3.00
2019-04-22T21:15:12.575Z,3.63
2019-04-22T21:17:38.731Z,3.40
2019-04-22T21:22:46.282Z,3.27
2019-04-22T21:25:08.875Z,3.13
2019-04-22T21:27:44.871Z,3.40
2019-04-22T21:30:12.349Z,3.33
2019-04-22T21:32:45.127Z,3.10
2019-04-22T21:35:21.576Z,2.97
2019-04-22T21:37:57.077Z,3.00
2019-04-22T21:40:19.997Z,2.40
2019-04-22T21:43:02.155Z,2.80
2019-04-22T21:45:20.314Z,2.93
2019-04-22T21:48:06.212Z,2.57
2019-04-22T21:53:01.248Z,2.70
2019-04-22T21:55:31.801Z,2.77
2019-04-22T21:58:21.387Z,3.17
2019-04-22T22:01:06.553Z,2.63
2019-04-22T22:03:23.680Z,2.53
2019-04-22T22:05:47.289Z,2.63
2019-04-22T22:08:30.119Z,2.77
2019-04-22T22:10:57.965Z,2.90
2019-04-22T22:13:27.064Z,2.57
2019-04-22T22:15:56.326Z,2.80
2019-04-22T22:18:21.405Z,2.53
2019-04-22T22:21:13.172Z,2.43
2019-04-22T22:25:55.783Z,2.53
2019-04-22T22:28:45.385Z,2.63
2019-04-22T22:31:02.013Z,2.87
2019-04-22T22:33:31.979Z,2.97
2019-04-22T22:35:54.691Z,2.67
2019-04-22T22:38:24.251Z,2.47
2019-04-22T22:40:40.463Z,2.40
2019-04-22T22:43:18.735Z,2.77
2019-04-22T22:45:44.985Z,2.40
2019-04-22T22:50:58.736Z,2.83
2019-04-22T22:53:34.020Z,3.03
2019-04-22T22:55:59.294Z,2.53
2019-04-22T22:58:29.312Z,2.40
2019-04-22T23:00:53.592Z,2.63
2019-04-22T23:03:46.011Z,2.83
2019-04-22T23:09:43.773Z,2.43
2019-04-22T23:12:31.243Z,2.20
2019-04-22T23:14:52.844Z,2.27
2019-04-22T23:17:11.720Z,2.60
2019-04-22T23:19:40.671Z,2.53
2019-04-22T23:22:20.498Z,2.10
2019-04-22T23:25:01.866Z,2.00
2019-04-22T23:27:34.482Z,2.10
2019-04-22T23:30:25.213Z,2.40
2019-04-22T23:33:07.526Z,2.40
2019-04-22T23:35:36.797Z,2.63
2019-04-22T23:38:07.839Z,2.57
2019-04-22T23:40:42.497Z,2.70
2019-04-22T23:43:24.278Z,2.77
2019-04-22T23:45:48.153Z,2.63
2019-04-22T23:48:11.180Z,2.73
2019-04-22T23:50:45.921Z,2.13
2019-04-22T23:53:36.435Z,2.00
2019-04-22T23:56:00.495Z,2.60
2019-04-22T23:58:52.647Z,2.27
